sensor_id;sensor_type;location;lat;lon;timestamp;pressure;altitude;pressure_sealevel;temperature;humidity
5814;BME280;2933;52.302;8.134;2022-10-31T00:04:03;101124.19;;;11.19;100.00
5814;BME280;2933;52.302;8.134;2022-10-31T00:09:05;101116.56;;;10.98;100.00
5814;BME280;2933;52.302;8.134;2022-10-31T00:14:08;101116.38;;;10.86;100.00
5814;BME280;2933;52.302;8.134;2022-10-31T00:19:10;101137.28;;;10.86;100.00
5814;BME280;2933;52.302;8.134;2022-10-31T00:24:11;101116.41;;;10.68;100.00
5814;BME280;2933;52.302;8.134;2022-10-31T00:29:14;101135.97;;;10.77;100.00
5814;BME280;2933;52.302;8.134;2022-10-31T00:34:16;101132.59;;;10.57;100.00
5814;BME280;2933;52.302;8.134;2022-10-31T00:39:17;101142.19;;;10.39;100.00
5814;BME280;2933;52.302;8.134;2022-10-31T00:44:20;101139.94;;;10.31;100.00
5814;BME280;2933;52.302;8.134;2022-10-31T00:49:22;101155.00;;;10.26;100.00
5814;BME280;2933;52.302;8.134;2022-10-31T00:54:23;101155.47;;;10.17;100.00
5814;BME280;2933;52.302;8.134;2022-10-31T00:59:26;101154.44;;;10.02;100.00
5814;BME280;2933;52.302;8.134;2022-10-31T01:04:28;101155.47;;;10.17;100.00
5814;BME280;2933;52.302;8.134;2022-10-31T01:09:29;101143.41;;;9.95;100.00
5814;BME280;2933;52.302;8.134;2022-10-31T01:14:32;101159.69;;;10.00;100.00
5814;BME280;2933;52.302;8.134;2022-10-31T01:19:34;101158.38;;;9.92;100.00
5814;BME280;2933;52.302;8.134;2022-10-31T01:24:35;101160.56;;;9.82;100.00
5814;BME280;2933;52.302;8.134;2022-10-31T01:29:38;101155.81;;;9.73;100.00
5814;BME280;2933;52.302;8.134;2022-10-31T01:34:40;101169.63;;;9.75;100.00
5814;BME280;2933;52.302;8.134;2022-10-31T01:39:42;101160.22;;;9.70;100.00
5814;BME280;2933;52.302;8.134;2022-10-31T01:45:02;101159.19;;;9.75;100.00
5814;BME280;2933;52.302;8.134;2022-10-31T01:50:11;101154.34;;;9.84;100.00
5814;BME280;2933;52.302;8.134;2022-10-31T01:55:16;101152.28;;;9.74;100.00
5814;BME280;2933;52.302;8.134;2022-10-31T02:00:21;101149.03;;;9.68;100.00
5814;BME280;2933;52.302;8.134;2022-10-31T02:05:25;101155.38;;;9.63;100.00
5814;BME280;2933;52.302;8.134;2022-10-31T02:10:27;101157.78;;;9.67;100.00
5814;BME280;2933;52.302;8.134;2022-10-31T02:15:30;101163.56;;;9.55;100.00
5814;BME280;2933;52.302;8.134;2022-10-31T02:20:38;101158.47;;;9.71;100.00
5814;BME280;2933;52.302;8.134;2022-10-31T02:26:07;101171.66;;;9.49;100.00
5814;BME280;2933;52.302;8.134;2022-10-31T02:31:23;101173.91;;;9.37;100.00
5814;BME280;2933;52.302;8.134;2022-10-31T02:36:36;101160.09;;;9.35;100.00
5814;BME280;2933;52.302;8.134;2022-10-31T02:41:48;101146.06;;;9.38;100.00
5814;BME280;2933;52.302;8.134;2022-10-31T02:46:54;101150.13;;;9.25;100.00
5814;BME280;2933;52.302;8.134;2022-10-31T02:51:58;101162.97;;;9.29;100.00
5814;BME280;2933;52.302;8.134;2022-10-31T02:57:03;101172.13;;;9.19;100.00
5814;BME280;2933;52.302;8.134;2022-10-31T03:02:36;101176.25;;;9.04;100.00
5814;BME280;2933;52.302;8.134;2022-10-31T03:07:52;101181.84;;;8.95;100.00
5814;BME280;2933;52.302;8.134;2022-10-31T03:12:59;101179.13;;;8.98;100.00
5814;BME280;2933;52.302;8.134;2022-10-31T03:18:07;101188.28;;;8.86;100.00
5814;BME280;2933;52.302;8.134;2022-10-31T03:23:12;101189.28;;;8.83;100.00
5814;BME280;2933;52.302;8.134;2022-10-31T03:28:18;101194.03;;;8.94;100.00
5814;BME280;2933;52.302;8.134;2022-10-31T03:33:26;101196.72;;;8.93;100.00
5814;BME280;2933;52.302;8.134;2022-10-31T03:38:29;101184.19;;;8.60;100.00
5814;BME280;2933;52.302;8.134;2022-10-31T03:43:38;101169.03;;;8.69;100.00
5814;BME280;2933;52.302;8.134;2022-10-31T03:48:43;101188.44;;;8.83;100.00
5814;BME280;2933;52.302;8.134;2022-10-31T03:53:49;101180.75;;;9.00;100.00
5814;BME280;2933;52.302;8.134;2022-10-31T03:58:58;101190.50;;;8.75;100.00
5814;BME280;2933;52.302;8.134;2022-10-31T04:04:03;101171.66;;;8.47;100.00
5814;BME280;2933;52.302;8.134;2022-10-31T04:09:07;101182.91;;;8.48;100.00
5814;BME280;2933;52.302;8.134;2022-10-31T04:14:11;101173.34;;;8.26;100.00
5814;BME280;2933;52.302;8.134;2022-10-31T04:19:14;101182.31;;;8.19;100.00
5814;BME280;2933;52.302;8.134;2022-10-31T04:24:16;101185.53;;;8.25;100.00
5814;BME280;2933;52.302;8.134;2022-10-31T04:29:17;101184.91;;;8.19;100.00
5814;BME280;2933;52.302;8.134;2022-10-31T04:34:20;101192.31;;;8.07;100.00
5814;BME280;2933;52.302;8.134;2022-10-31T04:39:22;101201.88;;;8.07;100.00
5814;BME280;2933;52.302;8.134;2022-10-31T04:44:23;101198.31;;;8.09;100.00
5814;BME280;2933;52.302;8.134;2022-10-31T04:49:26;101206.72;;;8.16;100.00
5814;BME280;2933;52.302;8.134;2022-10-31T04:54:27;101200.19;;;8.28;100.00
5814;BME280;2933;52.302;8.134;2022-10-31T04:59:29;101204.25;;;8.13;100.00
5814;BME280;2933;52.302;8.134;2022-10-31T05:04:32;101172.16;;;8.13;100.00
5814;BME280;2933;52.302;8.134;2022-10-31T05:09:33;101181.81;;;8.09;100.00
5814;BME280;2933;52.302;8.134;2022-10-31T05:14:35;101188.97;;;8.04;100.00
5814;BME280;2933;52.302;8.134;2022-10-31T05:19:38;101192.19;;;8.11;100.00
5814;BME280;2933;52.302;8.134;2022-10-31T05:24:39;101182.72;;;8.08;100.00
5814;BME280;2933;52.302;8.134;2022-10-31T05:29:41;101186.44;;;8.02;100.00
5814;BME280;2933;52.302;8.134;2022-10-31T05:34:44;101182.78;;;8.06;100.00
5814;BME280;2933;52.302;8.134;2022-10-31T05:39:45;101172.63;;;8.22;100.00
5814;BME280;2933;52.302;8.134;2022-10-31T05:44:47;101165.94;;;8.17;100.00
5814;BME280;2933;52.302;8.134;2022-10-31T05:49:50;101172.97;;;8.35;100.00
5814;BME280;2933;52.302;8.134;2022-10-31T05:54:51;101170.44;;;8.34;100.00
5814;BME280;2933;52.302;8.134;2022-10-31T05:59:53;101169.84;;;8.27;100.00
5814;BME280;2933;52.302;8.134;2022-10-31T06:04:55;101159.84;;;8.16;100.00
5814;BME280;2933;52.302;8.134;2022-10-31T06:09:57;101179.84;;;8.16;100.00
5814;BME280;2933;52.302;8.134;2022-10-31T06:14:58;101173.34;;;8.26;100.00
5814;BME280;2933;52.302;8.134;2022-10-31T06:20:02;101185.97;;;8.35;100.00
5814;BME280;2933;52.302;8.134;2022-10-31T06:25:04;101192.72;;;8.19;100.00
5814;BME280;2933;52.302;8.134;2022-10-31T06:30:07;101188.06;;;8.27;100.00
5814;BME280;2933;52.302;8.134;2022-10-31T06:35:10;101185.53;;;8.25;100.00
5814;BME280;2933;52.302;8.134;2022-10-31T06:40:11;101186.53;;;7.99;100.00
5814;BME280;2933;52.302;8.134;2022-10-31T06:45:13;101193.16;;;7.86;100.00
5814;BME280;2933;52.302;8.134;2022-10-31T06:50:16;101195.50;;;7.92;100.00
5814;BME280;2933;52.302;8.134;2022-10-31T06:55:18;101208.88;;;8.05;100.00
5814;BME280;2933;52.302;8.134;2022-10-31T07:00:21;101181.09;;;8.05;100.00
5814;BME280;2933;52.302;8.134;2022-10-31T07:05:24;101202.63;;;8.09;100.00
5814;BME280;2933;52.302;8.134;2022-10-31T07:10:29;101207.28;;;8.23;100.00
5814;BME280;2933;52.302;8.134;2022-10-31T07:15:34;101207.75;;;8.34;100.00
5814;BME280;2933;52.302;8.134;2022-10-31T07:20:37;101214.13;;;8.49;100.00
5814;BME280;2933;52.302;8.134;2022-10-31T07:25:39;101214.72;;;8.56;100.00
5814;BME280;2933;52.302;8.134;2022-10-31T07:30:41;101218.91;;;8.81;100.00
5814;BME280;2933;52.302;8.134;2022-10-31T07:35:44;101231.03;;;8.82;100.00
5814;BME280;2933;52.302;8.134;2022-10-31T07:40:49;101234.28;;;8.87;100.00
5814;BME280;2933;52.302;8.134;2022-10-31T07:45:51;101239.16;;;8.74;100.00
5814;BME280;2933;52.302;8.134;2022-10-31T07:50:54;101221.06;;;8.92;100.00
5814;BME280;2933;52.302;8.134;2022-10-31T07:55:56;101218.72;;;9.06;100.00
5814;BME280;2933;52.302;8.134;2022-10-31T08:00:58;101223.81;;;9.09;100.00
5814;BME280;2933;52.302;8.134;2022-10-31T08:06:01;101227.50;;;9.24;100.00
5814;BME280;2933;52.302;8.134;2022-10-31T08:11:02;101230.16;;;9.43;100.00
5814;BME280;2933;52.302;8.134;2022-10-31T08:16:04;101221.50;;;9.62;100.00
5814;BME280;2933;52.302;8.134;2022-10-31T08:21:08;101223.28;;;9.80;100.00
5814;BME280;2933;52.302;8.134;2022-10-31T08:26:10;101195.28;;;9.84;100.00
5814;BME280;2933;52.302;8.134;2022-10-31T08:31:12;101208.59;;;10.16;100.00
5814;BME280;2933;52.302;8.134;2022-10-31T08:36:15;101203.25;;;10.37;100.00
5814;BME280;2933;52.302;8.134;2022-10-31T08:41:16;101197.53;;;10.47;100.00
5814;BME280;2933;52.302;8.134;2022-10-31T08:46:18;101185.78;;;10.56;100.00
5814;BME280;2933;52.302;8.134;2022-10-31T08:51:20;101185.56;;;10.78;100.00
5814;BME280;2933;52.302;8.134;2022-10-31T08:56:22;101184.44;;;11.00;100.00
5814;BME280;2933;52.302;8.134;2022-10-31T09:01:23;101178.03;;;11.23;100.00
5814;BME280;2933;52.302;8.134;2022-10-31T09:06:26;101177.66;;;11.47;100.00
5814;BME280;2933;52.302;8.134;2022-10-31T09:11:29;101174.63;;;11.71;100.00
5814;BME280;2933;52.302;8.134;2022-10-31T09:16:31;101164.25;;;11.85;100.00
5814;BME280;2933;52.302;8.134;2022-10-31T09:21:34;101163.38;;;11.85;100.00
5814;BME280;2933;52.302;8.134;2022-10-31T09:26:35;101166.97;;;12.00;100.00
5814;BME280;2933;52.302;8.134;2022-10-31T09:31:37;101165.41;;;11.95;100.00
5814;BME280;2933;52.302;8.134;2022-10-31T09:36:39;101173.72;;;12.20;100.00
5814;BME280;2933;52.302;8.134;2022-10-31T09:41:58;101172.22;;;12.46;100.00
5814;BME280;2933;52.302;8.134;2022-10-31T09:47:06;101163.28;;;12.65;100.00
5814;BME280;2933;52.302;8.134;2022-10-31T09:52:18;101155.06;;;12.85;100.00
5814;BME280;2933;52.302;8.134;2022-10-31T09:57:25;101164.47;;;13.18;100.00
5814;BME280;2933;52.302;8.134;2022-10-31T10:02:33;101156.50;;;13.34;100.00
5814;BME280;2933;52.302;8.134;2022-10-31T10:07:44;101172.44;;;13.46;100.00
5814;BME280;2933;52.302;8.134;2022-10-31T10:13:04;101173.25;;;13.61;100.00
5814;BME280;2933;52.302;8.134;2022-10-31T10:18:17;101170.56;;;13.89;100.00
5814;BME280;2933;52.302;8.134;2022-10-31T10:23:45;101169.19;;;14.11;100.00
5814;BME280;2933;52.302;8.134;2022-10-31T10:28:54;101161.44;;;14.22;100.00
5814;BME280;2933;52.302;8.134;2022-10-31T10:34:02;101164.44;;;14.44;100.00
5814;BME280;2933;52.302;8.134;2022-10-31T10:39:14;101160.38;;;14.52;100.00
5814;BME280;2933;52.302;8.134;2022-10-31T10:44:16;101158.63;;;14.66;100.00
5814;BME280;2933;52.302;8.134;2022-10-31T10:49:19;101153.25;;;14.67;100.00
5814;BME280;2933;52.302;8.134;2022-10-31T10:54:48;101142.91;;;14.64;100.00
5814;BME280;2933;52.302;8.134;2022-10-31T10:59:54;101141.66;;;14.57;100.00
5814;BME280;2933;52.302;8.134;2022-10-31T11:04:57;101138.91;;;14.59;100.00
5814;BME280;2933;52.302;8.134;2022-10-31T11:10:05;101128.28;;;14.47;100.00
5814;BME280;2933;52.302;8.134;2022-10-31T11:15:23;101120.19;;;14.50;100.00
5814;BME280;2933;52.302;8.134;2022-10-31T11:20:32;101114.09;;;14.50;100.00
5814;BME280;2933;52.302;8.134;2022-10-31T11:25:36;101113.69;;;14.56;100.00
5814;BME280;2933;52.302;8.134;2022-10-31T11:30:43;101103.00;;;14.72;100.00
5814;BME280;2933;52.302;8.134;2022-10-31T11:35:45;101084.59;;;14.72;100.00
5814;BME280;2933;52.302;8.134;2022-10-31T11:40:54;101079.00;;;14.90;100.00
5814;BME280;2933;52.302;8.134;2022-10-31T11:45:57;101069.28;;;14.90;100.00
5814;BME280;2933;52.302;8.134;2022-10-31T11:50:58;101067.59;;;15.02;100.00
5814;BME280;2933;52.302;8.134;2022-10-31T11:56:04;101063.28;;;15.01;100.00
5814;BME280;2933;52.302;8.134;2022-10-31T12:01:22;101042.19;;;15.14;100.00
5814;BME280;2933;52.302;8.134;2022-10-31T12:06:29;101036.56;;;15.31;100.00
5814;BME280;2933;52.302;8.134;2022-10-31T12:11:40;101036.84;;;15.40;95.99
5814;BME280;2933;52.302;8.134;2022-10-31T12:16:48;101016.09;;;15.48;93.98
5814;BME280;2933;52.302;8.134;2022-10-31T12:22:02;101013.44;;;15.48;94.06
5814;BME280;2933;52.302;8.134;2022-10-31T12:27:21;101008.22;;;15.59;93.73
5814;BME280;2933;52.302;8.134;2022-10-31T12:32:31;100993.66;;;15.66;91.72
5814;BME280;2933;52.302;8.134;2022-10-31T12:37:45;100973.88;;;15.85;90.53
5814;BME280;2933;52.302;8.134;2022-10-31T12:43:01;100970.03;;;15.89;88.40
5814;BME280;2933;52.302;8.134;2022-10-31T12:48:19;100965.72;;;15.88;89.58
5814;BME280;2933;52.302;8.134;2022-10-31T12:53:40;100959.50;;;15.65;88.12
5814;BME280;2933;52.302;8.134;2022-10-31T12:58:52;100946.25;;;15.66;90.38
5814;BME280;2933;52.302;8.134;2022-10-31T13:03:58;100914.34;;;15.47;92.43
5814;BME280;2933;52.302;8.134;2022-10-31T13:09:05;100888.81;;;15.36;93.41
5814;BME280;2933;52.302;8.134;2022-10-31T13:14:15;100873.31;;;15.44;94.44
5814;BME280;2933;52.302;8.134;2022-10-31T13:19:25;100864.53;;;15.44;95.57
5814;BME280;2933;52.302;8.134;2022-10-31T13:24:31;100871.84;;;15.40;95.98
5814;BME280;2933;52.302;8.134;2022-10-31T13:29:39;100858.44;;;15.32;96.25
5814;BME280;2933;52.302;8.134;2022-10-31T13:34:47;100884.63;;;15.33;96.84
5814;BME280;2933;52.302;8.134;2022-10-31T13:40:09;100886.66;;;15.30;98.05
5814;BME280;2933;52.302;8.134;2022-10-31T13:45:16;100858.16;;;15.24;98.90
5814;BME280;2933;52.302;8.134;2022-10-31T13:50:23;100874.81;;;15.24;98.95
5814;BME280;2933;52.302;8.134;2022-10-31T13:55:36;100870.00;;;15.18;99.50
5814;BME280;2933;52.302;8.134;2022-10-31T14:00:39;100862.09;;;15.18;100.00
5814;BME280;2933;52.302;8.134;2022-10-31T14:05:42;100827.59;;;15.10;100.00
5814;BME280;2933;52.302;8.134;2022-10-31T14:10:47;100820.81;;;15.18;100.00
5814;BME280;2933;52.302;8.134;2022-10-31T14:15:57;100817.69;;;15.13;100.00
5814;BME280;2933;52.302;8.134;2022-10-31T14:21:00;100815.06;;;15.13;100.00
5814;BME280;2933;52.302;8.134;2022-10-31T14:26:35;100796.03;;;15.10;100.00
5814;BME280;2933;52.302;8.134;2022-10-31T14:31:41;100789.69;;;15.12;100.00
5814;BME280;2933;52.302;8.134;2022-10-31T14:36:54;100778.81;;;15.06;100.00
5814;BME280;2933;52.302;8.134;2022-10-31T14:42:14;100767.78;;;15.00;100.00
5814;BME280;2933;52.302;8.134;2022-10-31T14:47:30;100762.63;;;14.99;100.00
5814;BME280;2933;52.302;8.134;2022-10-31T14:52:35;100752.69;;;14.91;100.00
5814;BME280;2933;52.302;8.134;2022-10-31T14:57:38;100754.50;;;14.91;100.00
5814;BME280;2933;52.302;8.134;2022-10-31T15:02:52;100740.00;;;14.85;100.00
5814;BME280;2933;52.302;8.134;2022-10-31T15:07:58;100741.19;;;14.81;100.00
5814;BME280;2933;52.302;8.134;2022-10-31T15:13:08;100739.78;;;14.64;100.00
5814;BME280;2933;52.302;8.134;2022-10-31T15:18:16;100728.44;;;14.63;100.00
5814;BME280;2933;52.302;8.134;2022-10-31T15:23:22;100729.59;;;14.59;100.00
5814;BME280;2933;52.302;8.134;2022-10-31T15:28:25;100722.16;;;14.53;100.00
5814;BME280;2933;52.302;8.134;2022-10-31T15:33:29;100719.19;;;14.58;100.00
5814;BME280;2933;52.302;8.134;2022-10-31T15:38:31;100718.09;;;14.49;100.00
5814;BME280;2933;52.302;8.134;2022-10-31T15:43:35;100710.03;;;14.39;100.00
5814;BME280;2933;52.302;8.134;2022-10-31T15:48:43;100698.91;;;14.35;100.00
5814;BME280;2933;52.302;8.134;2022-10-31T15:53:48;100697.97;;;14.36;100.00
5814;BME280;2933;52.302;8.134;2022-10-31T15:58:52;100693.16;;;14.30;100.00
5814;BME280;2933;52.302;8.134;2022-10-31T16:04:04;100695.28;;;14.25;100.00
5814;BME280;2933;52.302;8.134;2022-10-31T16:09:20;100710.56;;;14.20;100.00
5814;BME280;2933;52.302;8.134;2022-10-31T16:14:23;100693.56;;;14.13;100.00
5814;BME280;2933;52.302;8.134;2022-10-31T16:19:33;100697.00;;;14.13;100.00
5814;BME280;2933;52.302;8.134;2022-10-31T16:24:44;100685.06;;;14.09;100.00
5814;BME280;2933;52.302;8.134;2022-10-31T16:29:47;100686.44;;;14.02;100.00
5814;BME280;2933;52.302;8.134;2022-10-31T16:34:58;100676.72;;;13.91;100.00
5814;BME280;2933;52.302;8.134;2022-10-31T16:40:00;100675.59;;;13.82;100.00
5814;BME280;2933;52.302;8.134;2022-10-31T16:45:02;100675.50;;;13.71;100.00
5814;BME280;2933;52.302;8.134;2022-10-31T16:50:14;100694.63;;;13.73;100.00
5814;BME280;2933;52.302;8.134;2022-10-31T16:55:18;100685.00;;;13.61;100.00
5814;BME280;2933;52.302;8.134;2022-10-31T17:00:21;100658.09;;;13.70;100.00
5814;BME280;2933;52.302;8.134;2022-10-31T17:05:25;100663.56;;;13.67;100.00
5814;BME280;2933;52.302;8.134;2022-10-31T17:10:29;100659.88;;;13.69;100.00
5814;BME280;2933;52.302;8.134;2022-10-31T17:15:35;100669.38;;;13.59;100.00
5814;BME280;2933;52.302;8.134;2022-10-31T17:20:39;100650.25;;;13.57;100.00
5814;BME280;2933;52.302;8.134;2022-10-31T17:25:42;100646.44;;;13.61;100.00
5814;BME280;2933;52.302;8.134;2022-10-31T17:30:44;100643.31;;;13.56;100.00
5814;BME280;2933;52.302;8.134;2022-10-31T17:35:47;100633.00;;;13.66;100.00
5814;BME280;2933;52.302;8.134;2022-10-31T17:40:48;100630.50;;;13.88;100.00
5814;BME280;2933;52.302;8.134;2022-10-31T17:45:50;100611.13;;;14.02;100.00
5814;BME280;2933;52.302;8.134;2022-10-31T17:50:53;100620.78;;;14.02;100.00
5814;BME280;2933;52.302;8.134;2022-10-31T17:55:59;100619.09;;;14.01;100.00
5814;BME280;2933;52.302;8.134;2022-10-31T18:01:06;100605.03;;;14.02;100.00
5814;BME280;2933;52.302;8.134;2022-10-31T18:06:10;100595.50;;;14.12;100.00
5814;BME280;2933;52.302;8.134;2022-10-31T18:11:16;100597.19;;;14.13;100.00
5814;BME280;2933;52.302;8.134;2022-10-31T18:16:17;100582.38;;;14.12;100.00
5814;BME280;2933;52.302;8.134;2022-10-31T18:21:20;100575.44;;;14.00;100.00
5814;BME280;2933;52.302;8.134;2022-10-31T18:26:23;100565.41;;;14.05;100.00
5814;BME280;2933;52.302;8.134;2022-10-31T18:31:24;100542.22;;;13.99;100.00
5814;BME280;2933;52.302;8.134;2022-10-31T18:36:27;100545.06;;;13.96;100.00
5814;BME280;2933;52.302;8.134;2022-10-31T18:41:29;100544.47;;;13.92;100.00
5814;BME280;2933;52.302;8.134;2022-10-31T18:46:30;100542.28;;;13.86;100.00
5814;BME280;2933;52.302;8.134;2022-10-31T18:51:33;100549.16;;;13.76;100.00
5814;BME280;2933;52.302;8.134;2022-10-31T18:56:35;100534.47;;;13.73;100.00
5814;BME280;2933;52.302;8.134;2022-10-31T19:01:36;100529.81;;;13.65;100.00
5814;BME280;2933;52.302;8.134;2022-10-31T19:06:39;100511.38;;;13.54;100.00
5814;BME280;2933;52.302;8.134;2022-10-31T19:11:41;100508.34;;;13.47;100.00
5814;BME280;2933;52.302;8.134;2022-10-31T19:16:42;100478.28;;;13.27;100.00
5814;BME280;2933;52.302;8.134;2022-10-31T19:21:45;100487.53;;;13.20;100.00
5814;BME280;2933;52.302;8.134;2022-10-31T19:26:47;100501.28;;;13.23;100.00
5814;BME280;2933;52.302;8.134;2022-10-31T19:31:48;100493.47;;;13.11;100.00
5814;BME280;2933;52.302;8.134;2022-10-31T19:36:51;100486.53;;;13.09;100.00
5814;BME280;2933;52.302;8.134;2022-10-31T19:41:53;100475.72;;;13.14;100.00
5814;BME280;2933;52.302;8.134;2022-10-31T19:46:54;100472.41;;;13.23;100.00
5814;BME280;2933;52.302;8.134;2022-10-31T19:51:57;100476.78;;;13.36;100.00
5814;BME280;2933;52.302;8.134;2022-10-31T19:56:58;100470.59;;;13.37;100.00
5814;BME280;2933;52.302;8.134;2022-10-31T20:02:00;100455.06;;;13.34;100.00
5814;BME280;2933;52.302;8.134;2022-10-31T20:07:03;100479.53;;;13.34;100.00
5814;BME280;2933;52.302;8.134;2022-10-31T20:12:06;100474.47;;;13.44;100.00
5814;BME280;2933;52.302;8.134;2022-10-31T20:17:07;100465.47;;;13.35;100.00
5814;BME280;2933;52.302;8.134;2022-10-31T20:22:10;100469.22;;;13.31;100.00
5814;BME280;2933;52.302;8.134;2022-10-31T20:27:12;100476.28;;;13.31;100.00
5814;BME280;2933;52.302;8.134;2022-10-31T20:32:14;100447.13;;;13.22;100.00
5814;BME280;2933;52.302;8.134;2022-10-31T20:37:16;100456.69;;;13.23;100.00
5814;BME280;2933;52.302;8.134;2022-10-31T20:42:18;100448.94;;;13.22;100.00
5814;BME280;2933;52.302;8.134;2022-10-31T20:47:21;100450.19;;;13.16;100.00
5814;BME280;2933;52.302;8.134;2022-10-31T20:52:23;100445.63;;;13.07;100.00
5814;BME280;2933;52.302;8.134;2022-10-31T20:57:25;100441.88;;;12.98;100.00
5814;BME280;2933;52.302;8.134;2022-10-31T21:02:26;100437.41;;;12.87;100.00
5814;BME280;2933;52.302;8.134;2022-10-31T21:07:30;100434.41;;;12.81;100.00
5814;BME280;2933;52.302;8.134;2022-10-31T21:12:31;100434.84;;;12.74;100.00
5814;BME280;2933;52.302;8.134;2022-10-31T21:17:33;100437.22;;;12.77;100.00
5814;BME280;2933;52.302;8.134;2022-10-31T21:22:36;100419.00;;;12.76;100.00
5814;BME280;2933;52.302;8.134;2022-10-31T21:27:38;100428.16;;;12.57;100.00
5814;BME280;2933;52.302;8.134;2022-10-31T21:32:39;100415.59;;;12.50;100.00
5814;BME280;2933;52.302;8.134;2022-10-31T21:37:42;100417.03;;;12.54;100.00
5814;BME280;2933;52.302;8.134;2022-10-31T21:42:44;100407.38;;;12.54;100.00
5814;BME280;2933;52.302;8.134;2022-10-31T21:47:45;100399.44;;;12.56;100.00
5814;BME280;2933;52.302;8.134;2022-10-31T21:52:48;100405.38;;;12.58;100.00
5814;BME280;2933;52.302;8.134;2022-10-31T21:57:49;100396.50;;;12.48;100.00
5814;BME280;2933;52.302;8.134;2022-10-31T22:02:51;100394.84;;;12.47;100.00
5814;BME280;2933;52.302;8.134;2022-10-31T22:07:54;100383.81;;;12.54;100.00
5814;BME280;2933;52.302;8.134;2022-10-31T22:12:56;100379.41;;;12.55;100.00
5814;BME280;2933;52.302;8.134;2022-10-31T22:17:57;100367.66;;;12.60;100.00
5814;BME280;2933;52.302;8.134;2022-10-31T22:23:00;100359.47;;;12.65;100.00
5814;BME280;2933;52.302;8.134;2022-10-31T22:28:02;100348.16;;;12.65;100.00
5814;BME280;2933;52.302;8.134;2022-10-31T22:33:06;100338.66;;;12.75;100.00
5814;BME280;2933;52.302;8.134;2022-10-31T22:38:08;100321.00;;;12.66;100.00
5814;BME280;2933;52.302;8.134;2022-10-31T22:43:10;100314.88;;;12.78;100.00
5814;BME280;2933;52.302;8.134;2022-10-31T22:48:11;100311.69;;;12.86;100.00
5814;BME280;2933;52.302;8.134;2022-10-31T22:53:14;100309.63;;;12.78;100.00
5814;BME280;2933;52.302;8.134;2022-10-31T22:58:16;100306.28;;;12.76;100.00
5814;BME280;2933;52.302;8.134;2022-10-31T23:03:17;100306.28;;;12.76;100.00
5814;BME280;2933;52.302;8.134;2022-10-31T23:08:20;100292.69;;;12.71;100.00
5814;BME280;2933;52.302;8.134;2022-10-31T23:13:22;100280.50;;;12.70;100.00
5814;BME280;2933;52.302;8.134;2022-10-31T23:18:41;100281.09;;;12.62;100.00
5814;BME280;2933;52.302;8.134;2022-10-31T23:23:44;100273.75;;;12.54;100.00
5814;BME280;2933;52.302;8.134;2022-10-31T23:28:45;100272.81;;;12.55;100.00
5814;BME280;2933;52.302;8.134;2022-10-31T23:33:47;100265.81;;;12.56;100.00
5814;BME280;2933;52.302;8.134;2022-10-31T23:38:50;100268.31;;;12.57;100.00
5814;BME280;2933;52.302;8.134;2022-10-31T23:43:52;100276.28;;;12.56;100.00
5814;BME280;2933;52.302;8.134;2022-10-31T23:48:54;100274.00;;;12.51;100.00
5814;BME280;2933;52.302;8.134;2022-10-31T23:53:57;100266.00;;;12.53;100.00
5814;BME280;2933;52.302;8.134;2022-10-31T23:58:58;100257.22;;;12.54;100.00
